sensor_id;sensor_type;location;lat;lon;timestamp;P1;durP1;ratioP1;P2;durP2;ratioP2
20970;SDS011;10644;48.834;10.088;2024-03-02T00:02:41;32.80;;;18.00;;
20970;SDS011;10644;48.834;10.088;2024-03-02T00:05:08;36.47;;;19.53;;
20970;SDS011;10644;48.834;10.088;2024-03-02T00:07:37;35.30;;;18.30;;
20970;SDS011;10644;48.834;10.088;2024-03-02T00:10:05;37.93;;;19.07;;
20970;SDS011;10644;48.834;10.088;2024-03-02T00:12:35;35.88;;;18.33;;
20970;SDS011;10644;48.834;10.088;2024-03-02T00:15:01;32.60;;;16.53;;
20970;SDS011;10644;48.834;10.088;2024-03-02T00:17:27;37.83;;;17.93;;
20970;SDS011;10644;48.834;10.088;2024-03-02T00:19:54;33.30;;;17.58;;
20970;SDS011;10644;48.834;10.088;2024-03-02T00:22:19;42.47;;;20.13;;
20970;SDS011;10644;48.834;10.088;2024-03-02T00:24:45;33.13;;;17.63;;
20970;SDS011;10644;48.834;10.088;2024-03-02T00:27:10;32.27;;;17.53;;
20970;SDS011;10644;48.834;10.088;2024-03-02T00:29:40;33.13;;;17.93;;
20970;SDS011;10644;48.834;10.088;2024-03-02T00:32:11;35.25;;;20.10;;
20970;SDS011;10644;48.834;10.088;2024-03-02T00:34:38;32.30;;;16.67;;
20970;SDS011;10644;48.834;10.088;2024-03-02T00:37:04;35.30;;;19.80;;
20970;SDS011;10644;48.834;10.088;2024-03-02T00:39:30;32.57;;;16.93;;
20970;SDS011;10644;48.834;10.088;2024-03-02T00:41:55;30.40;;;17.00;;
20970;SDS011;10644;48.834;10.088;2024-03-02T00:44:21;34.60;;;18.30;;
20970;SDS011;10644;48.834;10.088;2024-03-02T00:46:50;34.93;;;19.33;;
20970;SDS011;10644;48.834;10.088;2024-03-02T00:49:19;34.03;;;17.50;;
20970;SDS011;10644;48.834;10.088;2024-03-02T00:51:49;33.30;;;18.15;;
20970;SDS011;10644;48.834;10.088;2024-03-02T00:54:20;35.87;;;17.33;;
20970;SDS011;10644;48.834;10.088;2024-03-02T00:56:47;36.00;;;18.53;;
20970;SDS011;10644;48.834;10.088;2024-03-02T00:59:13;34.10;;;18.53;;
20970;SDS011;10644;48.834;10.088;2024-03-02T01:01:38;39.10;;;18.37;;
20970;SDS011;10644;48.834;10.088;2024-03-02T01:04:03;32.63;;;17.03;;
20970;SDS011;10644;48.834;10.088;2024-03-02T01:06:29;39.53;;;18.73;;
20970;SDS011;10644;48.834;10.088;2024-03-02T01:08:57;39.63;;;20.40;;
20970;SDS011;10644;48.834;10.088;2024-03-02T01:11:22;34.10;;;18.43;;
20970;SDS011;10644;48.834;10.088;2024-03-02T01:13:48;35.60;;;18.83;;
20970;SDS011;10644;48.834;10.088;2024-03-02T01:16:13;31.33;;;17.00;;
20970;SDS011;10644;48.834;10.088;2024-03-02T01:18:40;33.90;;;18.00;;
20970;SDS011;10644;48.834;10.088;2024-03-02T01:21:06;36.07;;;18.57;;
20970;SDS011;10644;48.834;10.088;2024-03-02T01:23:33;37.53;;;19.00;;
20970;SDS011;10644;48.834;10.088;2024-03-02T01:25:59;31.57;;;16.77;;
20970;SDS011;10644;48.834;10.088;2024-03-02T01:28:24;30.83;;;17.80;;
20970;SDS011;10644;48.834;10.088;2024-03-02T01:30:50;31.93;;;17.70;;
20970;SDS011;10644;48.834;10.088;2024-03-02T01:33:16;32.23;;;18.40;;
20970;SDS011;10644;48.834;10.088;2024-03-02T01:35:45;32.43;;;17.50;;
20970;SDS011;10644;48.834;10.088;2024-03-02T01:38:10;29.93;;;16.80;;
20970;SDS011;10644;48.834;10.088;2024-03-02T01:40:36;34.37;;;18.90;;
20970;SDS011;10644;48.834;10.088;2024-03-02T01:43:03;32.93;;;18.57;;
20970;SDS011;10644;48.834;10.088;2024-03-02T01:45:33;33.53;;;17.77;;
20970;SDS011;10644;48.834;10.088;2024-03-02T01:48:02;34.57;;;17.80;;
20970;SDS011;10644;48.834;10.088;2024-03-02T01:50:32;35.53;;;17.50;;
20970;SDS011;10644;48.834;10.088;2024-03-02T01:52:58;34.43;;;18.30;;
20970;SDS011;10644;48.834;10.088;2024-03-02T01:55:25;36.27;;;18.83;;
20970;SDS011;10644;48.834;10.088;2024-03-02T01:57:50;33.73;;;18.63;;
20970;SDS011;10644;48.834;10.088;2024-03-02T02:00:17;38.87;;;19.00;;
20970;SDS011;10644;48.834;10.088;2024-03-02T02:02:43;38.47;;;18.37;;
20970;SDS011;10644;48.834;10.088;2024-03-02T02:05:09;39.43;;;19.33;;
20970;SDS011;10644;48.834;10.088;2024-03-02T02:07:36;37.33;;;18.07;;
20970;SDS011;10644;48.834;10.088;2024-03-02T02:10:02;35.93;;;18.90;;
20970;SDS011;10644;48.834;10.088;2024-03-02T02:12:27;33.63;;;18.57;;
20970;SDS011;10644;48.834;10.088;2024-03-02T02:14:53;39.77;;;19.60;;
20970;SDS011;10644;48.834;10.088;2024-03-02T02:17:18;38.60;;;18.10;;
20970;SDS011;10644;48.834;10.088;2024-03-02T02:19:44;38.27;;;18.50;;
20970;SDS011;10644;48.834;10.088;2024-03-02T02:22:12;31.37;;;17.00;;
20970;SDS011;10644;48.834;10.088;2024-03-02T02:24:41;35.43;;;17.87;;
20970;SDS011;10644;48.834;10.088;2024-03-02T02:27:07;38.47;;;20.50;;
20970;SDS011;10644;48.834;10.088;2024-03-02T02:29:33;36.87;;;18.80;;
20970;SDS011;10644;48.834;10.088;2024-03-02T02:31:58;38.40;;;18.80;;
20970;SDS011;10644;48.834;10.088;2024-03-02T02:34:26;38.13;;;19.67;;
20970;SDS011;10644;48.834;10.088;2024-03-02T02:36:51;38.87;;;20.83;;
20970;SDS011;10644;48.834;10.088;2024-03-02T02:39:18;41.10;;;19.50;;
20970;SDS011;10644;48.834;10.088;2024-03-02T02:41:48;40.80;;;19.40;;
20970;SDS011;10644;48.834;10.088;2024-03-02T02:44:13;39.73;;;18.03;;
20970;SDS011;10644;48.834;10.088;2024-03-02T02:46:39;31.80;;;17.20;;
20970;SDS011;10644;48.834;10.088;2024-03-02T02:49:05;35.50;;;19.20;;
20970;SDS011;10644;48.834;10.088;2024-03-02T02:51:31;38.90;;;19.20;;
20970;SDS011;10644;48.834;10.088;2024-03-02T02:53:56;40.03;;;19.23;;
20970;SDS011;10644;48.834;10.088;2024-03-02T02:56:22;36.03;;;18.27;;
20970;SDS011;10644;48.834;10.088;2024-03-02T02:58:47;38.17;;;19.00;;
20970;SDS011;10644;48.834;10.088;2024-03-02T03:01:13;33.63;;;18.37;;
20970;SDS011;10644;48.834;10.088;2024-03-02T03:03:42;42.03;;;20.27;;
20970;SDS011;10644;48.834;10.088;2024-03-02T03:06:07;38.77;;;20.40;;
20970;SDS011;10644;48.834;10.088;2024-03-02T03:08:32;39.70;;;20.40;;
20970;SDS011;10644;48.834;10.088;2024-03-02T03:10:58;43.87;;;22.00;;
20970;SDS011;10644;48.834;10.088;2024-03-02T03:13:23;40.47;;;20.77;;
20970;SDS011;10644;48.834;10.088;2024-03-02T03:15:48;37.63;;;18.80;;
20970;SDS011;10644;48.834;10.088;2024-03-02T03:18:14;41.63;;;20.63;;
20970;SDS011;10644;48.834;10.088;2024-03-02T03:20:39;38.17;;;19.20;;
20970;SDS011;10644;48.834;10.088;2024-03-02T03:23:04;42.67;;;20.80;;
20970;SDS011;10644;48.834;10.088;2024-03-02T03:25:30;37.03;;;20.37;;
20970;SDS011;10644;48.834;10.088;2024-03-02T03:27:58;41.10;;;20.50;;
20970;SDS011;10644;48.834;10.088;2024-03-02T03:30:23;39.10;;;19.87;;
20970;SDS011;10644;48.834;10.088;2024-03-02T03:32:48;44.57;;;20.20;;
20970;SDS011;10644;48.834;10.088;2024-03-02T03:35:14;45.93;;;20.10;;
20970;SDS011;10644;48.834;10.088;2024-03-02T03:37:40;38.00;;;20.70;;
20970;SDS011;10644;48.834;10.088;2024-03-02T03:40:06;39.73;;;20.60;;
20970;SDS011;10644;48.834;10.088;2024-03-02T03:42:35;41.78;;;20.45;;
20970;SDS011;10644;48.834;10.088;2024-03-02T03:45:03;47.33;;;21.40;;
20970;SDS011;10644;48.834;10.088;2024-03-02T03:47:30;49.33;;;23.40;;
20970;SDS011;10644;48.834;10.088;2024-03-02T03:49:56;49.30;;;22.73;;
20970;SDS011;10644;48.834;10.088;2024-03-02T03:52:24;41.72;;;19.83;;
20970;SDS011;10644;48.834;10.088;2024-03-02T03:54:49;40.63;;;19.70;;
20970;SDS011;10644;48.834;10.088;2024-03-02T03:57:17;50.47;;;21.60;;
20970;SDS011;10644;48.834;10.088;2024-03-02T03:59:43;45.13;;;20.83;;
20970;SDS011;10644;48.834;10.088;2024-03-02T04:02:09;42.67;;;20.77;;
20970;SDS011;10644;48.834;10.088;2024-03-02T04:04:36;42.90;;;20.77;;
20970;SDS011;10644;48.834;10.088;2024-03-02T04:07:01;40.30;;;19.27;;
20970;SDS011;10644;48.834;10.088;2024-03-02T04:09:27;42.33;;;18.97;;
20970;SDS011;10644;48.834;10.088;2024-03-02T04:11:52;38.70;;;19.30;;
20970;SDS011;10644;48.834;10.088;2024-03-02T04:14:18;40.23;;;19.40;;
20970;SDS011;10644;48.834;10.088;2024-03-02T04:16:46;38.70;;;20.30;;
20970;SDS011;10644;48.834;10.088;2024-03-02T04:19:11;43.83;;;21.67;;
20970;SDS011;10644;48.834;10.088;2024-03-02T04:21:37;46.07;;;20.83;;
20970;SDS011;10644;48.834;10.088;2024-03-02T04:24:02;45.00;;;20.00;;
20970;SDS011;10644;48.834;10.088;2024-03-02T04:26:28;45.97;;;19.90;;
20970;SDS011;10644;48.834;10.088;2024-03-02T04:28:53;46.17;;;22.40;;
20970;SDS011;10644;48.834;10.088;2024-03-02T04:31:19;42.00;;;19.27;;
20970;SDS011;10644;48.834;10.088;2024-03-02T04:33:45;42.47;;;21.17;;
20970;SDS011;10644;48.834;10.088;2024-03-02T04:36:10;40.20;;;20.37;;
20970;SDS011;10644;48.834;10.088;2024-03-02T04:38:38;40.22;;;19.40;;
20970;SDS011;10644;48.834;10.088;2024-03-02T04:41:04;46.07;;;20.73;;
20970;SDS011;10644;48.834;10.088;2024-03-02T04:43:31;39.25;;;19.77;;
20970;SDS011;10644;48.834;10.088;2024-03-02T04:45:56;41.93;;;20.23;;
20970;SDS011;10644;48.834;10.088;2024-03-02T04:48:23;43.28;;;18.98;;
20970;SDS011;10644;48.834;10.088;2024-03-02T04:50:48;38.07;;;17.80;;
20970;SDS011;10644;48.834;10.088;2024-03-02T04:53:16;39.33;;;19.00;;
20970;SDS011;10644;48.834;10.088;2024-03-02T04:55:41;41.50;;;19.60;;
20970;SDS011;10644;48.834;10.088;2024-03-02T04:58:07;37.50;;;19.73;;
20970;SDS011;10644;48.834;10.088;2024-03-02T05:00:32;37.20;;;19.30;;
20970;SDS011;10644;48.834;10.088;2024-03-02T05:02:58;40.90;;;19.50;;
20970;SDS011;10644;48.834;10.088;2024-03-02T05:05:26;37.70;;;18.93;;
20970;SDS011;10644;48.834;10.088;2024-03-02T05:07:51;36.47;;;18.67;;
20970;SDS011;10644;48.834;10.088;2024-03-02T05:10:19;44.03;;;20.63;;
20970;SDS011;10644;48.834;10.088;2024-03-02T05:12:44;38.60;;;18.70;;
20970;SDS011;10644;48.834;10.088;2024-03-02T05:15:10;42.40;;;20.60;;
20970;SDS011;10644;48.834;10.088;2024-03-02T05:17:37;33.93;;;17.17;;
20970;SDS011;10644;48.834;10.088;2024-03-02T05:20:03;33.92;;;19.23;;
20970;SDS011;10644;48.834;10.088;2024-03-02T05:22:29;36.92;;;19.45;;
20970;SDS011;10644;48.834;10.088;2024-03-02T05:24:54;36.33;;;20.97;;
20970;SDS011;10644;48.834;10.088;2024-03-02T05:27:24;37.60;;;18.52;;
20970;SDS011;10644;48.834;10.088;2024-03-02T05:29:49;38.23;;;17.60;;
20970;SDS011;10644;48.834;10.088;2024-03-02T05:32:14;38.70;;;19.10;;
20970;SDS011;10644;48.834;10.088;2024-03-02T05:34:40;32.53;;;17.53;;
20970;SDS011;10644;48.834;10.088;2024-03-02T05:37:05;33.17;;;16.80;;
20970;SDS011;10644;48.834;10.088;2024-03-02T05:39:30;32.60;;;16.00;;
20970;SDS011;10644;48.834;10.088;2024-03-02T05:41:56;36.67;;;17.57;;
20970;SDS011;10644;48.834;10.088;2024-03-02T05:44:21;27.60;;;15.40;;
20970;SDS011;10644;48.834;10.088;2024-03-02T05:46:47;32.20;;;16.90;;
20970;SDS011;10644;48.834;10.088;2024-03-02T05:49:13;31.87;;;16.53;;
20970;SDS011;10644;48.834;10.088;2024-03-02T05:51:38;28.87;;;15.17;;
20970;SDS011;10644;48.834;10.088;2024-03-02T05:54:06;29.98;;;14.95;;
20970;SDS011;10644;48.834;10.088;2024-03-02T05:56:32;27.37;;;15.47;;
20970;SDS011;10644;48.834;10.088;2024-03-02T05:58:57;45.73;;;17.20;;
20970;SDS011;10644;48.834;10.088;2024-03-02T06:01:44;50.50;;;18.52;;
20970;SDS011;10644;48.834;10.088;2024-03-02T06:04:17;48.03;;;18.25;;
20970;SDS011;10644;48.834;10.088;2024-03-02T06:06:42;64.80;;;20.23;;
20970;SDS011;10644;48.834;10.088;2024-03-02T06:09:08;44.67;;;16.93;;
20970;SDS011;10644;48.834;10.088;2024-03-02T06:11:34;41.57;;;16.97;;
20970;SDS011;10644;48.834;10.088;2024-03-02T06:14:02;48.83;;;16.43;;
20970;SDS011;10644;48.834;10.088;2024-03-02T06:16:32;53.42;;;18.02;;
20970;SDS011;10644;48.834;10.088;2024-03-02T06:18:58;47.80;;;18.17;;
20970;SDS011;10644;48.834;10.088;2024-03-02T06:21:23;43.53;;;17.00;;
20970;SDS011;10644;48.834;10.088;2024-03-02T06:23:51;54.67;;;19.23;;
20970;SDS011;10644;48.834;10.088;2024-03-02T06:26:17;58.60;;;19.17;;
20970;SDS011;10644;48.834;10.088;2024-03-02T06:28:43;53.25;;;18.10;;
20970;SDS011;10644;48.834;10.088;2024-03-02T06:31:08;52.57;;;18.70;;
20970;SDS011;10644;48.834;10.088;2024-03-02T06:33:36;48.53;;;17.65;;
20970;SDS011;10644;48.834;10.088;2024-03-02T06:36:02;54.60;;;17.70;;
20970;SDS011;10644;48.834;10.088;2024-03-02T06:38:27;42.47;;;16.50;;
20970;SDS011;10644;48.834;10.088;2024-03-02T06:40:53;48.77;;;16.90;;
20970;SDS011;10644;48.834;10.088;2024-03-02T06:43:18;50.30;;;17.27;;
20970;SDS011;10644;48.834;10.088;2024-03-02T06:45:48;46.83;;;16.30;;
20970;SDS011;10644;48.834;10.088;2024-03-02T06:48:14;50.13;;;16.33;;
20970;SDS011;10644;48.834;10.088;2024-03-02T06:50:43;50.53;;;16.35;;
20970;SDS011;10644;48.834;10.088;2024-03-02T06:53:08;47.40;;;15.83;;
20970;SDS011;10644;48.834;10.088;2024-03-02T06:55:34;50.53;;;14.53;;
20970;SDS011;10644;48.834;10.088;2024-03-02T06:58:01;50.13;;;15.30;;
20970;SDS011;10644;48.834;10.088;2024-03-02T07:00:27;55.87;;;17.23;;
20970;SDS011;10644;48.834;10.088;2024-03-02T07:02:52;53.57;;;17.43;;
20970;SDS011;10644;48.834;10.088;2024-03-02T07:05:17;57.73;;;16.77;;
20970;SDS011;10644;48.834;10.088;2024-03-02T07:07:43;59.97;;;20.70;;
20970;SDS011;10644;48.834;10.088;2024-03-02T07:10:08;52.77;;;18.63;;
20970;SDS011;10644;48.834;10.088;2024-03-02T07:12:36;42.97;;;16.87;;
20970;SDS011;10644;48.834;10.088;2024-03-02T07:15:04;46.73;;;17.33;;
20970;SDS011;10644;48.834;10.088;2024-03-02T07:17:30;52.67;;;19.93;;
20970;SDS011;10644;48.834;10.088;2024-03-02T07:20:01;55.70;;;19.00;;
20970;SDS011;10644;48.834;10.088;2024-03-02T07:22:26;45.70;;;19.08;;
20970;SDS011;10644;48.834;10.088;2024-03-02T07:24:52;65.43;;;25.43;;
20970;SDS011;10644;48.834;10.088;2024-03-02T07:27:17;48.37;;;17.80;;
20970;SDS011;10644;48.834;10.088;2024-03-02T07:29:43;39.77;;;15.93;;
20970;SDS011;10644;48.834;10.088;2024-03-02T07:32:09;48.00;;;17.77;;
20970;SDS011;10644;48.834;10.088;2024-03-02T07:34:35;44.13;;;15.30;;
20970;SDS011;10644;48.834;10.088;2024-03-02T07:37:01;48.87;;;16.90;;
20970;SDS011;10644;48.834;10.088;2024-03-02T07:39:29;45.50;;;15.23;;
20970;SDS011;10644;48.834;10.088;2024-03-02T07:41:55;54.90;;;17.50;;
20970;SDS011;10644;48.834;10.088;2024-03-02T07:44:20;43.63;;;16.20;;
20970;SDS011;10644;48.834;10.088;2024-03-02T07:46:50;52.70;;;16.97;;
20970;SDS011;10644;48.834;10.088;2024-03-02T07:49:16;54.47;;;17.60;;
20970;SDS011;10644;48.834;10.088;2024-03-02T07:51:41;50.13;;;17.70;;
20970;SDS011;10644;48.834;10.088;2024-03-02T07:54:07;43.50;;;16.27;;
20970;SDS011;10644;48.834;10.088;2024-03-02T07:56:33;47.83;;;16.73;;
20970;SDS011;10644;48.834;10.088;2024-03-02T07:59:02;50.97;;;17.20;;
20970;SDS011;10644;48.834;10.088;2024-03-02T08:01:28;47.67;;;17.23;;
20970;SDS011;10644;48.834;10.088;2024-03-02T08:03:55;63.53;;;18.57;;
20970;SDS011;10644;48.834;10.088;2024-03-02T08:06:24;46.83;;;16.63;;
20970;SDS011;10644;48.834;10.088;2024-03-02T08:08:53;56.83;;;18.20;;
20970;SDS011;10644;48.834;10.088;2024-03-02T08:11:19;74.63;;;18.00;;
20970;SDS011;10644;48.834;10.088;2024-03-02T08:13:47;46.07;;;16.07;;
20970;SDS011;10644;48.834;10.088;2024-03-02T08:16:14;42.47;;;16.13;;
20970;SDS011;10644;48.834;10.088;2024-03-02T08:18:44;51.77;;;19.17;;
20970;SDS011;10644;48.834;10.088;2024-03-02T08:21:11;44.83;;;17.20;;
20970;SDS011;10644;48.834;10.088;2024-03-02T08:23:36;52.83;;;19.37;;
20970;SDS011;10644;48.834;10.088;2024-03-02T08:26:02;48.40;;;17.60;;
20970;SDS011;10644;48.834;10.088;2024-03-02T08:28:28;57.47;;;22.93;;
20970;SDS011;10644;48.834;10.088;2024-03-02T08:30:53;49.30;;;17.27;;
20970;SDS011;10644;48.834;10.088;2024-03-02T08:33:18;39.57;;;15.33;;
20970;SDS011;10644;48.834;10.088;2024-03-02T08:35:49;44.40;;;16.20;;
20970;SDS011;10644;48.834;10.088;2024-03-02T08:38:14;43.47;;;15.70;;
20970;SDS011;10644;48.834;10.088;2024-03-02T08:40:40;51.50;;;15.90;;
20970;SDS011;10644;48.834;10.088;2024-03-02T08:43:07;54.53;;;23.10;;
20970;SDS011;10644;48.834;10.088;2024-03-02T08:45:33;40.47;;;14.50;;
20970;SDS011;10644;48.834;10.088;2024-03-02T08:48:02;34.93;;;14.57;;
20970;SDS011;10644;48.834;10.088;2024-03-02T08:50:29;38.13;;;13.33;;
20970;SDS011;10644;48.834;10.088;2024-03-02T08:52:57;46.00;;;15.50;;
20970;SDS011;10644;48.834;10.088;2024-03-02T08:55:25;36.87;;;14.17;;
20970;SDS011;10644;48.834;10.088;2024-03-02T08:57:58;55.10;;;13.87;;
20970;SDS011;10644;48.834;10.088;2024-03-02T09:00:23;36.47;;;11.50;;
20970;SDS011;10644;48.834;10.088;2024-03-02T09:02:49;34.17;;;13.48;;
20970;SDS011;10644;48.834;10.088;2024-03-02T09:05:15;31.80;;;12.73;;
20970;SDS011;10644;48.834;10.088;2024-03-02T09:07:42;36.20;;;13.63;;
20970;SDS011;10644;48.834;10.088;2024-03-02T09:10:08;30.47;;;12.60;;
20970;SDS011;10644;48.834;10.088;2024-03-02T09:12:34;24.23;;;11.90;;
20970;SDS011;10644;48.834;10.088;2024-03-02T09:15:00;31.57;;;12.77;;
20970;SDS011;10644;48.834;10.088;2024-03-02T09:17:28;29.40;;;12.60;;
20970;SDS011;10644;48.834;10.088;2024-03-02T09:19:53;29.37;;;12.30;;
20970;SDS011;10644;48.834;10.088;2024-03-02T09:22:19;34.33;;;11.97;;
20970;SDS011;10644;48.834;10.088;2024-03-02T09:24:44;42.17;;;16.60;;
20970;SDS011;10644;48.834;10.088;2024-03-02T09:27:10;33.63;;;11.67;;
20970;SDS011;10644;48.834;10.088;2024-03-02T09:29:35;29.13;;;10.73;;
20970;SDS011;10644;48.834;10.088;2024-03-02T09:32:01;31.37;;;11.40;;
20970;SDS011;10644;48.834;10.088;2024-03-02T09:34:29;25.27;;;8.60;;
20970;SDS011;10644;48.834;10.088;2024-03-02T09:36:56;47.80;;;12.37;;
20970;SDS011;10644;48.834;10.088;2024-03-02T09:39:22;28.33;;;11.97;;
20970;SDS011;10644;48.834;10.088;2024-03-02T09:41:48;22.00;;;9.17;;
20970;SDS011;10644;48.834;10.088;2024-03-02T09:44:14;22.90;;;8.40;;
20970;SDS011;10644;48.834;10.088;2024-03-02T09:46:39;24.53;;;7.40;;
20970;SDS011;10644;48.834;10.088;2024-03-02T09:49:09;22.80;;;8.27;;
20970;SDS011;10644;48.834;10.088;2024-03-02T09:51:37;30.03;;;9.20;;
20970;SDS011;10644;48.834;10.088;2024-03-02T09:54:03;28.40;;;8.53;;
20970;SDS011;10644;48.834;10.088;2024-03-02T09:56:28;18.60;;;7.97;;
20970;SDS011;10644;48.834;10.088;2024-03-02T09:58:56;18.30;;;8.53;;
20970;SDS011;10644;48.834;10.088;2024-03-02T10:01:21;19.47;;;8.40;;
20970;SDS011;10644;48.834;10.088;2024-03-02T10:03:47;19.30;;;8.30;;
20970;SDS011;10644;48.834;10.088;2024-03-02T10:06:20;14.00;;;7.60;;
20970;SDS011;10644;48.834;10.088;2024-03-02T10:08:50;12.30;;;7.30;;
20970;SDS011;10644;48.834;10.088;2024-03-02T10:14:13;12.27;;;7.40;;
20970;SDS011;10644;48.834;10.088;2024-03-02T10:16:41;10.23;;;6.80;;
20970;SDS011;10644;48.834;10.088;2024-03-02T10:19:17;17.40;;;7.13;;
20970;SDS011;10644;48.834;10.088;2024-03-02T10:21:43;13.70;;;7.70;;
20970;SDS011;10644;48.834;10.088;2024-03-02T10:24:09;11.13;;;6.03;;
20970;SDS011;10644;48.834;10.088;2024-03-02T10:26:34;15.63;;;7.03;;
20970;SDS011;10644;48.834;10.088;2024-03-02T10:29:00;13.17;;;6.60;;
20970;SDS011;10644;48.834;10.088;2024-03-02T10:31:25;16.23;;;8.13;;
20970;SDS011;10644;48.834;10.088;2024-03-02T10:33:54;16.83;;;6.43;;
20970;SDS011;10644;48.834;10.088;2024-03-02T10:36:20;17.20;;;5.80;;
20970;SDS011;10644;48.834;10.088;2024-03-02T10:38:46;11.03;;;6.03;;
20970;SDS011;10644;48.834;10.088;2024-03-02T10:41:19;9.57;;;5.27;;
20970;SDS011;10644;48.834;10.088;2024-03-02T10:43:51;9.53;;;5.23;;
20970;SDS011;10644;48.834;10.088;2024-03-02T10:46:20;11.07;;;5.90;;
20970;SDS011;10644;48.834;10.088;2024-03-02T10:48:47;7.77;;;4.63;;
20970;SDS011;10644;48.834;10.088;2024-03-02T10:51:14;10.83;;;6.47;;
20970;SDS011;10644;48.834;10.088;2024-03-02T10:53:40;13.27;;;8.00;;
20970;SDS011;10644;48.834;10.088;2024-03-02T10:56:05;10.37;;;6.33;;
20970;SDS011;10644;48.834;10.088;2024-03-02T10:58:34;7.77;;;4.83;;
20970;SDS011;10644;48.834;10.088;2024-03-02T11:01:02;18.03;;;10.10;;
20970;SDS011;10644;48.834;10.088;2024-03-02T11:03:29;61.90;;;20.83;;
20970;SDS011;10644;48.834;10.088;2024-03-02T11:06:01;21.53;;;9.33;;
20970;SDS011;10644;48.834;10.088;2024-03-02T11:08:31;26.10;;;8.73;;
20970;SDS011;10644;48.834;10.088;2024-03-02T11:11:07;9.83;;;4.43;;
20970;SDS011;10644;48.834;10.088;2024-03-02T11:13:39;12.03;;;6.93;;
20970;SDS011;10644;48.834;10.088;2024-03-02T11:16:53;10.00;;;5.20;;
20970;SDS011;10644;48.834;10.088;2024-03-02T11:19:05;9.43;;;4.67;;
20970;SDS011;10644;48.834;10.088;2024-03-02T11:21:35;8.37;;;4.40;;
20970;SDS011;10644;48.834;10.088;2024-03-02T11:26:46;8.83;;;4.03;;
20970;SDS011;10644;48.834;10.088;2024-03-02T11:34:32;7.67;;;3.47;;
20970;SDS011;10644;48.834;10.088;2024-03-02T11:36:58;6.07;;;2.63;;
20970;SDS011;10644;48.834;10.088;2024-03-02T11:39:27;8.03;;;3.07;;
20970;SDS011;10644;48.834;10.088;2024-03-02T11:41:56;9.10;;;4.20;;
20970;SDS011;10644;48.834;10.088;2024-03-02T11:44:24;9.60;;;3.53;;
20970;SDS011;10644;48.834;10.088;2024-03-02T11:47:00;7.30;;;3.47;;
20970;SDS011;10644;48.834;10.088;2024-03-02T11:49:36;10.40;;;5.97;;
20970;SDS011;10644;48.834;10.088;2024-03-02T11:52:02;7.57;;;3.63;;
20970;SDS011;10644;48.834;10.088;2024-03-02T11:54:31;10.07;;;5.07;;
20970;SDS011;10644;48.834;10.088;2024-03-02T11:56:59;17.60;;;7.30;;
20970;SDS011;10644;48.834;10.088;2024-03-02T11:59:29;8.10;;;4.63;;
20970;SDS011;10644;48.834;10.088;2024-03-02T12:01:55;10.33;;;3.87;;
20970;SDS011;10644;48.834;10.088;2024-03-02T12:04:23;13.73;;;4.87;;
20970;SDS011;10644;48.834;10.088;2024-03-02T12:06:56;9.07;;;4.07;;
20970;SDS011;10644;48.834;10.088;2024-03-02T12:09:24;10.03;;;4.30;;
20970;SDS011;10644;48.834;10.088;2024-03-02T12:12:00;9.10;;;4.57;;
20970;SDS011;10644;48.834;10.088;2024-03-02T12:14:36;9.63;;;4.23;;
20970;SDS011;10644;48.834;10.088;2024-03-02T12:17:05;12.03;;;5.50;;
20970;SDS011;10644;48.834;10.088;2024-03-02T12:19:31;11.57;;;4.80;;
20970;SDS011;10644;48.834;10.088;2024-03-02T12:22:00;9.23;;;4.00;;
20970;SDS011;10644;48.834;10.088;2024-03-02T12:24:28;7.73;;;4.20;;
20970;SDS011;10644;48.834;10.088;2024-03-02T12:26:54;9.43;;;4.83;;
20970;SDS011;10644;48.834;10.088;2024-03-02T12:29:20;16.20;;;6.57;;
20970;SDS011;10644;48.834;10.088;2024-03-02T12:31:53;9.57;;;6.00;;
20970;SDS011;10644;48.834;10.088;2024-03-02T12:34:21;10.27;;;4.17;;
20970;SDS011;10644;48.834;10.088;2024-03-02T12:36:47;8.80;;;3.90;;
20970;SDS011;10644;48.834;10.088;2024-03-02T12:39:14;6.37;;;3.10;;
20970;SDS011;10644;48.834;10.088;2024-03-02T12:41:43;9.43;;;5.90;;
20970;SDS011;10644;48.834;10.088;2024-03-02T12:44:08;5.90;;;2.77;;
20970;SDS011;10644;48.834;10.088;2024-03-02T12:46:34;7.83;;;2.87;;
20970;SDS011;10644;48.834;10.088;2024-03-02T12:49:10;5.83;;;2.97;;
20970;SDS011;10644;48.834;10.088;2024-03-02T12:51:37;7.70;;;3.77;;
20970;SDS011;10644;48.834;10.088;2024-03-02T12:54:09;5.77;;;2.87;;
20970;SDS011;10644;48.834;10.088;2024-03-02T12:56:35;13.40;;;5.90;;
20970;SDS011;10644;48.834;10.088;2024-03-02T12:59:02;9.33;;;4.57;;
20970;SDS011;10644;48.834;10.088;2024-03-02T13:01:28;10.83;;;4.43;;
20970;SDS011;10644;48.834;10.088;2024-03-02T13:03:53;11.20;;;4.03;;
20970;SDS011;10644;48.834;10.088;2024-03-02T13:06:20;8.73;;;4.40;;
20970;SDS011;10644;48.834;10.088;2024-03-02T13:08:48;9.93;;;4.37;;
20970;SDS011;10644;48.834;10.088;2024-03-02T13:11:14;9.07;;;4.17;;
20970;SDS011;10644;48.834;10.088;2024-03-02T13:13:41;10.97;;;5.33;;
20970;SDS011;10644;48.834;10.088;2024-03-02T13:16:10;8.30;;;3.90;;
20970;SDS011;10644;48.834;10.088;2024-03-02T13:18:36;11.33;;;4.50;;
20970;SDS011;10644;48.834;10.088;2024-03-02T13:21:03;14.50;;;5.00;;
20970;SDS011;10644;48.834;10.088;2024-03-02T13:23:29;17.53;;;5.70;;
20970;SDS011;10644;48.834;10.088;2024-03-02T13:25:56;11.73;;;5.20;;
20970;SDS011;10644;48.834;10.088;2024-03-02T13:28:23;7.87;;;4.07;;
20970;SDS011;10644;48.834;10.088;2024-03-02T13:30:48;9.33;;;4.80;;
20970;SDS011;10644;48.834;10.088;2024-03-02T13:33:13;8.33;;;5.20;;
20970;SDS011;10644;48.834;10.088;2024-03-02T13:35:46;10.30;;;5.30;;
20970;SDS011;10644;48.834;10.088;2024-03-02T13:38:11;15.57;;;6.60;;
20970;SDS011;10644;48.834;10.088;2024-03-02T13:40:37;13.73;;;4.57;;
20970;SDS011;10644;48.834;10.088;2024-03-02T13:43:02;11.23;;;5.57;;
20970;SDS011;10644;48.834;10.088;2024-03-02T13:45:28;10.07;;;5.10;;
20970;SDS011;10644;48.834;10.088;2024-03-02T13:47:53;11.93;;;5.43;;
20970;SDS011;10644;48.834;10.088;2024-03-02T13:50:19;11.70;;;5.83;;
20970;SDS011;10644;48.834;10.088;2024-03-02T13:52:45;10.70;;;5.80;;
20970;SDS011;10644;48.834;10.088;2024-03-02T13:55:10;10.30;;;5.27;;
20970;SDS011;10644;48.834;10.088;2024-03-02T13:57:35;12.80;;;6.10;;
20970;SDS011;10644;48.834;10.088;2024-03-02T14:00:01;8.47;;;5.10;;
20970;SDS011;10644;48.834;10.088;2024-03-02T14:02:28;11.40;;;4.83;;
20970;SDS011;10644;48.834;10.088;2024-03-02T14:04:53;12.67;;;6.80;;
20970;SDS011;10644;48.834;10.088;2024-03-02T14:07:21;17.13;;;8.73;;
20970;SDS011;10644;48.834;10.088;2024-03-02T14:09:46;12.00;;;6.90;;
20970;SDS011;10644;48.834;10.088;2024-03-02T14:12:12;12.30;;;7.10;;
20970;SDS011;10644;48.834;10.088;2024-03-02T14:14:38;19.00;;;9.10;;
20970;SDS011;10644;48.834;10.088;2024-03-02T14:17:06;23.90;;;9.33;;
20970;SDS011;10644;48.834;10.088;2024-03-02T14:19:35;14.97;;;7.07;;
20970;SDS011;10644;48.834;10.088;2024-03-02T14:22:00;11.63;;;7.10;;
20970;SDS011;10644;48.834;10.088;2024-03-02T14:24:26;14.63;;;7.37;;